createdAt,value
2022-07-26T00:00:40.852Z,72.09
2022-07-26T00:03:07.771Z,72.51
2022-07-26T00:05:37.162Z,72.60
2022-07-26T00:08:11.097Z,72.04
2022-07-26T00:10:45.811Z,72.91
2022-07-26T00:13:13.034Z,72.47
2022-07-26T00:15:40.129Z,72.49
2022-07-26T00:18:08.081Z,73.56
2022-07-26T00:20:39.041Z,73.64
2022-07-26T00:23:06.165Z,73.65
2022-07-26T00:25:33.649Z,75.30
2022-07-26T00:28:00.599Z,73.81
2022-07-26T00:30:28.758Z,71.99
2022-07-26T00:32:55.588Z,71.27
2022-07-26T00:35:22.476Z,72.27
2022-07-26T00:37:49.345Z,71.87
2022-07-26T00:40:17.508Z,70.78
2022-07-26T00:42:45.083Z,70.25
2022-07-26T00:45:13.509Z,70.55
2022-07-26T00:47:40.722Z,70.14
2022-07-26T00:50:12.411Z,70.31
2022-07-26T00:52:42.047Z,70.21
2022-07-26T00:55:09.519Z,69.80
2022-07-26T00:57:36.875Z,70.14
2022-07-26T01:00:08.047Z,70.44
2022-07-26T01:02:35.055Z,70.15
2022-07-26T01:05:02.205Z,70.46
2022-07-26T01:07:29.719Z,70.29
2022-07-26T01:09:57.314Z,70.25
2022-07-26T01:12:24.203Z,70.33
2022-07-26T01:14:51.176Z,70.49
2022-07-26T01:17:17.978Z,70.09
2022-07-26T01:19:44.835Z,71.04
2022-07-26T01:22:14.534Z,71.08
2022-07-26T01:24:42.445Z,70.53
2022-07-26T01:27:09.330Z,70.56
2022-07-26T01:29:36.607Z,70.44
2022-07-26T01:32:05.022Z,71.28
2022-07-26T01:34:32.684Z,71.56
2022-07-26T01:36:59.865Z,72.84
2022-07-26T01:39:26.923Z,77.38
2022-07-26T01:41:54.363Z,80.75
2022-07-26T01:44:22.887Z,84.04
2022-07-26T01:46:50.203Z,89.34
2022-07-26T01:49:17.249Z,91.04
2022-07-26T01:51:44.286Z,92.12
2022-07-26T01:54:12.010Z,93.11
2022-07-26T01:56:39.215Z,93.63
2022-07-26T01:59:06.057Z,93.82
2022-07-26T02:01:38.661Z,93.60
2022-07-26T02:04:07.892Z,92.86
2022-07-26T02:06:35.096Z,96.01
2022-07-26T02:09:02.102Z,93.85
2022-07-26T02:11:29.120Z,95.04
2022-07-26T02:13:55.920Z,92.98
2022-07-26T02:16:22.834Z,92.69
2022-07-26T02:18:49.852Z,93.20
2022-07-26T02:21:16.698Z,92.82
2022-07-26T02:23:43.588Z,91.22
2022-07-26T02:26:10.524Z,91.00
2022-07-26T02:28:37.339Z,91.22
2022-07-26T02:31:04.551Z,93.01
2022-07-26T02:33:31.862Z,92.00
2022-07-26T02:35:58.691Z,92.78
2022-07-26T02:38:25.531Z,95.07
2022-07-26T02:40:52.998Z,97.03
2022-07-26T02:43:20.265Z,96.72
2022-07-26T02:46:01.495Z,95.24
2022-07-26T02:48:30.693Z,96.21
2022-07-26T02:50:57.664Z,95.23
2022-07-26T02:53:24.523Z,94.77
2022-07-26T02:55:51.661Z,94.18
2022-07-26T02:58:21.348Z,94.48
2022-07-26T03:00:48.252Z,96.02
2022-07-26T03:03:15.181Z,95.07
2022-07-26T03:05:42.128Z,95.75
2022-07-26T03:08:09.026Z,94.83
2022-07-26T03:10:35.956Z,95.82
2022-07-26T03:13:02.877Z,95.23
2022-07-26T03:15:29.845Z,94.67
2022-07-26T03:17:56.902Z,95.26
2022-07-26T03:20:24.019Z,94.99
2022-07-26T03:22:50.839Z,95.01
2022-07-26T03:25:17.664Z,95.58
2022-07-26T03:27:44.489Z,97.57
2022-07-26T03:30:12.662Z,99.62
2022-07-26T03:32:39.562Z,98.70
2022-07-26T03:35:07.985Z,98.77
2022-07-26T03:37:45.982Z,99.59
2022-07-26T03:40:15.797Z,99.40
2022-07-26T03:42:42.725Z,100.00
2022-07-26T03:45:10.115Z,100.00
2022-07-26T03:47:37.393Z,100.00
2022-07-26T03:50:06.103Z,100.00
2022-07-26T03:52:33.169Z,100.00
2022-07-26T03:55:00.009Z,100.00
2022-07-26T03:57:28.430Z,100.00
2022-07-26T03:59:55.787Z,100.00
2022-07-26T04:02:22.718Z,100.00
2022-07-26T04:04:49.572Z,100.00
2022-07-26T04:07:16.451Z,100.00
2022-07-26T04:09:43.278Z,100.00
2022-07-26T04:12:10.229Z,100.00
2022-07-26T04:14:37.043Z,100.00
2022-07-26T04:17:03.998Z,100.00
2022-07-26T04:19:30.871Z,100.00
2022-07-26T04:21:57.725Z,100.00
2022-07-26T04:24:25.330Z,100.00
2022-07-26T04:26:52.725Z,100.00
2022-07-26T04:29:19.585Z,100.00
2022-07-26T04:31:46.846Z,100.00
2022-07-26T04:34:13.656Z,100.00
2022-07-26T04:36:40.495Z,100.00
2022-07-26T04:39:07.362Z,100.00
2022-07-26T04:41:34.192Z,100.00
2022-07-26T04:44:01.015Z,100.00
2022-07-26T04:46:27.980Z,100.00
2022-07-26T04:48:54.919Z,100.00
2022-07-26T04:51:21.896Z,100.00
2022-07-26T04:53:48.877Z,100.00
2022-07-26T04:56:15.691Z,100.00
2022-07-26T04:58:42.509Z,100.00
2022-07-26T05:01:10.769Z,100.00
2022-07-26T05:03:38.930Z,100.00
2022-07-26T05:06:05.991Z,100.00
2022-07-26T05:08:32.892Z,100.00
2022-07-26T05:10:59.834Z,100.00
2022-07-26T05:13:29.883Z,100.00
2022-07-26T05:15:59.303Z,100.00
2022-07-26T05:18:26.530Z,100.00
2022-07-26T05:20:53.541Z,100.00
2022-07-26T05:23:20.588Z,100.00
2022-07-26T05:25:47.970Z,100.00
2022-07-26T05:28:14.840Z,100.00
2022-07-26T05:30:41.785Z,100.00
2022-07-26T05:33:08.664Z,100.00
2022-07-26T05:35:35.568Z,100.00
2022-07-26T05:38:02.446Z,100.00
2022-07-26T05:40:29.433Z,100.00
2022-07-26T05:42:56.319Z,100.00
2022-07-26T05:45:23.283Z,100.00
2022-07-26T05:47:51.456Z,100.00
2022-07-26T05:50:18.423Z,100.00
2022-07-26T05:52:45.754Z,100.00
2022-07-26T05:55:12.591Z,97.86
2022-07-26T05:57:41.547Z,96.00
2022-07-26T06:00:10.252Z,95.49
2022-07-26T06:02:37.202Z,95.69
2022-07-26T06:05:04.636Z,95.82
2022-07-26T06:07:31.747Z,95.79
2022-07-26T06:09:58.753Z,95.05
2022-07-26T06:12:25.643Z,94.19
2022-07-26T06:14:52.539Z,94.18
2022-07-26T06:17:19.454Z,93.24
2022-07-26T06:19:47.846Z,94.53
2022-07-26T06:22:15.242Z,94.79
2022-07-26T06:24:42.077Z,95.45
2022-07-26T06:27:08.916Z,94.00
2022-07-26T06:29:35.740Z,94.42
2022-07-26T06:32:02.732Z,93.93
2022-07-26T06:34:29.795Z,92.02
2022-07-26T06:36:56.652Z,91.74
2022-07-26T06:39:23.501Z,88.95
2022-07-26T06:41:50.630Z,90.16
2022-07-26T06:44:17.545Z,86.21
2022-07-26T06:46:44.405Z,84.64
2022-07-26T06:49:13.175Z,83.38
2022-07-26T06:51:40.096Z,82.62
2022-07-26T06:54:07.187Z,80.30
2022-07-26T06:56:34.240Z,81.75
2022-07-26T06:59:04.004Z,81.77
2022-07-26T07:01:58.084Z,80.86
2022-07-26T07:04:20.083Z,78.33
2022-07-26T07:06:46.971Z,79.09
2022-07-26T07:09:16.399Z,79.00
2022-07-26T07:11:44.426Z,78.00
2022-07-26T07:14:11.984Z,74.49
2022-07-26T07:16:39.083Z,74.82
2022-07-26T07:19:06.028Z,75.32
2022-07-26T07:21:33.841Z,73.97
2022-07-26T07:24:00.766Z,73.20
2022-07-26T07:26:28.885Z,71.60
2022-07-26T07:28:55.872Z,71.52
2022-07-26T07:31:30.643Z,72.77
2022-07-26T07:34:10.907Z,71.22
2022-07-26T07:36:38.000Z,70.92
2022-07-26T07:39:07.556Z,70.69
2022-07-26T07:41:38.125Z,69.23
2022-07-26T07:44:08.240Z,71.11
2022-07-26T07:46:35.316Z,68.13
2022-07-26T07:49:02.271Z,68.55
2022-07-26T07:51:29.507Z,66.66
2022-07-26T07:53:57.953Z,65.82
2022-07-26T07:56:26.305Z,65.14
2022-07-26T07:58:53.317Z,65.87
2022-07-26T08:01:20.374Z,62.13
2022-07-26T08:03:50.699Z,63.20
2022-07-26T08:06:18.064Z,63.53
2022-07-26T08:08:44.894Z,62.60
2022-07-26T08:11:12.466Z,62.41
2022-07-26T08:13:40.792Z,61.97
2022-07-26T08:16:10.303Z,62.03
2022-07-26T08:18:45.181Z,62.90
2022-07-26T08:21:22.777Z,60.67
2022-07-26T08:23:50.572Z,60.97
2022-07-26T08:26:17.396Z,56.68
2022-07-26T08:28:48.335Z,56.87
2022-07-26T08:31:16.770Z,59.57
2022-07-26T08:33:45.916Z,58.59
2022-07-26T08:36:17.653Z,59.59
2022-07-26T08:38:47.646Z,61.68
2022-07-26T08:41:18.806Z,58.70
2022-07-26T08:43:53.049Z,56.91
2022-07-26T08:46:26.380Z,54.36
2022-07-26T08:48:55.924Z,52.90
2022-07-26T08:51:25.075Z,51.12
2022-07-26T08:54:03.745Z,50.78
2022-07-26T08:56:35.650Z,50.93
2022-07-26T08:59:19.622Z,51.07
2022-07-26T09:02:14.239Z,50.81
2022-07-26T09:04:46.587Z,50.86
2022-07-26T09:07:17.985Z,50.81
2022-07-26T09:10:10.311Z,50.33
2022-07-26T09:12:38.509Z,49.88
2022-07-26T09:15:09.000Z,50.70
2022-07-26T09:17:42.701Z,50.24
2022-07-26T09:20:16.294Z,49.88
2022-07-26T09:23:07.547Z,49.14
2022-07-26T09:25:46.074Z,48.81
2022-07-26T09:28:30.406Z,48.87
2022-07-26T09:31:04.084Z,49.68
2022-07-26T09:33:45.419Z,48.67
2022-07-26T09:36:12.298Z,48.78
2022-07-26T09:38:51.650Z,48.83
2022-07-26T09:41:34.027Z,48.62
2022-07-26T09:44:04.377Z,47.78
2022-07-26T09:46:35.302Z,47.75
2022-07-26T09:49:19.540Z,47.01
2022-07-26T09:51:50.010Z,47.21
2022-07-26T09:54:35.469Z,47.44
2022-07-26T09:57:03.240Z,46.89
2022-07-26T09:59:30.811Z,45.94
2022-07-26T10:01:59.815Z,45.76
2022-07-26T10:04:27.262Z,45.78
2022-07-26T10:06:54.731Z,45.72
2022-07-26T10:09:25.370Z,45.78
2022-07-26T10:12:08.945Z,44.99
2022-07-26T10:14:46.896Z,45.68
2022-07-26T10:17:30.854Z,46.09
2022-07-26T10:20:09.375Z,46.69
2022-07-26T10:22:47.179Z,47.27
2022-07-26T10:25:20.236Z,46.67
2022-07-26T10:27:57.733Z,46.44
2022-07-26T10:30:33.888Z,46.38
2022-07-26T10:33:07.541Z,46.13
2022-07-26T10:35:43.420Z,46.29
2022-07-26T10:38:25.682Z,46.23
2022-07-26T10:41:06.113Z,46.00
2022-07-26T10:43:42.247Z,45.96
2022-07-26T10:46:18.647Z,45.64
2022-07-26T10:49:00.106Z,46.40
2022-07-26T10:51:32.106Z,47.36
2022-07-26T10:54:05.301Z,47.25
2022-07-26T10:56:33.699Z,45.70
2022-07-26T10:59:01.975Z,45.31
2022-07-26T11:01:41.131Z,46.18
2022-07-26T11:04:23.513Z,46.05
2022-07-26T11:06:50.590Z,45.56
2022-07-26T11:09:21.021Z,45.52
2022-07-26T11:11:48.651Z,45.79
2022-07-26T11:14:18.121Z,45.05
2022-07-26T11:16:50.331Z,45.83
2022-07-26T11:19:26.369Z,46.02
2022-07-26T11:21:59.839Z,44.78
2022-07-26T11:24:28.022Z,44.13
2022-07-26T11:26:55.780Z,44.00
2022-07-26T11:29:41.261Z,43.06
2022-07-26T11:32:24.619Z,43.29
2022-07-26T11:35:03.313Z,43.05
2022-07-26T11:37:30.254Z,41.22
2022-07-26T11:39:57.228Z,35.20
2022-07-26T11:42:24.102Z,30.49
2022-07-26T11:44:51.227Z,29.28
2022-07-26T11:47:25.244Z,26.70
2022-07-26T11:52:40.912Z,25.55
2022-07-26T11:55:08.809Z,22.65
2022-07-26T11:57:35.854Z,21.01
2022-07-26T12:00:04.336Z,21.55
2022-07-26T12:02:31.508Z,19.04
2022-07-26T12:05:20.761Z,19.58
2022-07-26T12:08:04.985Z,15.99
2022-07-26T12:10:32.096Z,15.06
2022-07-26T12:13:14.552Z,16.98
2022-07-26T12:15:46.399Z,18.70
2022-07-26T12:18:26.343Z,20.68
2022-07-26T12:21:12.479Z,22.26
2022-07-26T12:23:48.419Z,21.01
2022-07-26T12:26:30.746Z,18.85
2022-07-26T12:28:59.797Z,20.13
2022-07-26T12:31:32.588Z,17.37
2022-07-26T12:34:00.356Z,21.19
2022-07-26T12:36:29.563Z,24.84
2022-07-26T12:39:00.950Z,23.93
2022-07-26T12:41:37.194Z,24.49
2022-07-26T12:44:06.571Z,24.01
2022-07-26T12:46:35.840Z,23.50
2022-07-26T12:49:03.954Z,26.28
2022-07-26T12:51:30.885Z,26.03
2022-07-26T12:53:57.876Z,24.99
2022-07-26T12:56:24.838Z,25.58
2022-07-26T12:58:52.983Z,27.54
2022-07-26T13:01:19.875Z,27.30
2022-07-26T13:03:46.737Z,29.98
2022-07-26T13:06:13.661Z,29.11
2022-07-26T13:08:40.545Z,28.97
2022-07-26T13:11:07.407Z,28.93
2022-07-26T13:13:34.262Z,30.11
2022-07-26T13:16:01.090Z,31.10
2022-07-26T13:18:27.916Z,32.36
2022-07-26T13:20:54.746Z,31.36
2022-07-26T13:23:25.414Z,31.37
2022-07-26T13:25:53.790Z,31.44
2022-07-26T13:28:21.504Z,31.54
2022-07-26T13:30:48.372Z,31.91
2022-07-26T13:33:17.539Z,31.25
2022-07-26T13:35:44.331Z,32.80
2022-07-26T13:38:11.274Z,32.58
2022-07-26T13:40:38.244Z,32.68
2022-07-26T13:43:05.497Z,32.91
2022-07-26T13:45:32.325Z,32.97
2022-07-26T13:47:59.747Z,32.84
2022-07-26T13:50:30.070Z,32.95
2022-07-26T13:52:57.399Z,32.46
2022-07-26T13:55:25.558Z,33.16
2022-07-26T13:57:56.746Z,32.71
2022-07-26T14:00:26.517Z,32.85
2022-07-26T14:02:54.183Z,32.62
2022-07-26T14:05:21.215Z,33.40
2022-07-26T14:07:48.118Z,34.15
2022-07-26T14:10:14.976Z,33.71
2022-07-26T14:12:41.931Z,34.07
2022-07-26T14:15:16.610Z,33.14
2022-07-26T14:17:47.031Z,33.59
2022-07-26T14:20:14.805Z,33.06
2022-07-26T14:22:41.791Z,32.22
2022-07-26T14:25:09.253Z,33.13
2022-07-26T14:27:36.066Z,32.84
2022-07-26T14:30:04.667Z,33.36
2022-07-26T14:32:31.483Z,33.13
2022-07-26T14:34:58.369Z,33.59
2022-07-26T14:37:44.015Z,32.72
2022-07-26T14:40:16.899Z,33.40
2022-07-26T14:42:45.986Z,33.95
2022-07-26T14:45:14.491Z,33.80
2022-07-26T14:47:41.975Z,33.32
2022-07-26T14:50:11.175Z,34.18
2022-07-26T14:52:48.253Z,33.84
2022-07-26T14:55:20.433Z,33.07
2022-07-26T14:57:51.473Z,32.99
2022-07-26T15:00:18.545Z,33.23
2022-07-26T15:02:48.169Z,33.27
2022-07-26T15:05:17.007Z,33.51
2022-07-26T15:07:44.552Z,34.19
2022-07-26T15:10:13.666Z,33.98
2022-07-26T15:12:41.203Z,34.05
2022-07-26T15:15:09.658Z,33.88
2022-07-26T15:17:37.484Z,33.29
2022-07-26T15:20:05.917Z,33.14
2022-07-26T15:22:32.774Z,32.90
2022-07-26T15:24:59.619Z,32.83
2022-07-26T15:27:26.449Z,32.19
2022-07-26T15:29:53.347Z,32.27
2022-07-26T15:32:21.157Z,32.72
2022-07-26T15:34:48.141Z,32.91
2022-07-26T15:37:14.990Z,33.05
2022-07-26T15:39:41.920Z,32.75
2022-07-26T15:42:09.356Z,32.83
2022-07-26T15:44:41.119Z,33.04
2022-07-26T15:47:08.297Z,32.85
2022-07-26T15:49:40.308Z,33.36
2022-07-26T15:52:10.660Z,32.86
2022-07-26T15:54:37.950Z,32.60
2022-07-26T15:57:04.857Z,32.84
2022-07-26T15:59:31.676Z,32.89
2022-07-26T16:01:58.662Z,33.24
2022-07-26T16:04:25.524Z,33.16
2022-07-26T16:06:52.445Z,32.61
2022-07-26T16:09:19.845Z,32.95
2022-07-26T16:11:48.680Z,32.83
2022-07-26T16:14:17.002Z,33.82
2022-07-26T16:16:44.651Z,34.09
2022-07-26T16:19:12.346Z,34.58
2022-07-26T16:21:40.465Z,34.44
2022-07-26T16:24:08.560Z,34.88
2022-07-26T16:26:36.312Z,34.22
2022-07-26T16:29:04.408Z,34.85
2022-07-26T16:31:32.509Z,35.16
2022-07-26T16:33:59.482Z,34.67
2022-07-26T16:36:26.362Z,35.40
2022-07-26T16:38:53.349Z,34.58
2022-07-26T16:41:20.260Z,35.16
2022-07-26T16:43:47.131Z,34.61
2022-07-26T16:46:14.042Z,34.62
2022-07-26T16:48:41.037Z,34.64
2022-07-26T16:51:07.901Z,35.05
2022-07-26T16:53:34.812Z,34.92
2022-07-26T16:56:01.645Z,34.50
2022-07-26T16:58:28.485Z,35.03
2022-07-26T17:00:55.486Z,35.12
2022-07-26T17:03:23.563Z,35.16
2022-07-26T17:05:50.856Z,35.36
2022-07-26T17:08:17.989Z,35.89
2022-07-26T17:10:45.177Z,36.27
2022-07-26T17:13:11.998Z,35.81
2022-07-26T17:15:38.906Z,35.98
2022-07-26T17:18:05.829Z,35.95
2022-07-26T17:20:32.641Z,35.66
2022-07-26T17:22:59.565Z,35.50
2022-07-26T17:25:26.496Z,35.78
2022-07-26T17:27:53.312Z,35.89
2022-07-26T17:30:20.487Z,35.87
2022-07-26T17:32:47.477Z,35.93
2022-07-26T17:35:14.513Z,36.31
2022-07-26T17:37:41.593Z,36.32
2022-07-26T17:40:09.767Z,36.53
2022-07-26T17:42:37.622Z,36.83
2022-07-26T17:45:06.704Z,37.41
2022-07-26T17:47:33.538Z,36.61
2022-07-26T17:50:34.145Z,36.14
2022-07-26T17:52:53.744Z,36.10
2022-07-26T17:55:21.653Z,36.33
2022-07-26T17:57:50.054Z,36.79
2022-07-26T18:00:22.814Z,36.73
2022-07-26T18:02:49.716Z,37.32
2022-07-26T18:05:18.289Z,36.95
2022-07-26T18:07:45.351Z,36.68
2022-07-26T18:10:14.222Z,37.00
2022-07-26T18:12:41.309Z,36.95
2022-07-26T18:15:08.895Z,36.69
2022-07-26T18:17:36.234Z,37.59
2022-07-26T18:20:04.581Z,37.13
2022-07-26T18:22:31.497Z,37.11
2022-07-26T18:24:58.337Z,36.89
2022-07-26T18:27:28.040Z,37.21
2022-07-26T18:29:56.299Z,37.25
2022-07-26T18:32:23.907Z,37.20
2022-07-26T18:34:52.577Z,37.51
2022-07-26T18:37:20.631Z,37.54
2022-07-26T18:39:48.386Z,37.83
2022-07-26T18:42:15.465Z,37.85
2022-07-26T18:44:42.311Z,38.19
2022-07-26T18:47:09.711Z,38.03
2022-07-26T18:49:36.741Z,38.75
2022-07-26T18:52:08.352Z,38.93
2022-07-26T18:54:35.856Z,38.99
2022-07-26T18:57:02.695Z,39.02
2022-07-26T18:59:30.874Z,39.52
2022-07-26T19:01:59.066Z,39.48
2022-07-26T19:04:26.477Z,40.22
2022-07-26T19:06:53.408Z,39.78
2022-07-26T19:09:20.415Z,39.91
2022-07-26T19:11:47.304Z,40.14
2022-07-26T19:14:14.194Z,40.27
2022-07-26T19:16:41.026Z,40.53
2022-07-26T19:19:07.940Z,40.79
2022-07-26T19:21:34.869Z,40.95
2022-07-26T19:24:01.759Z,40.82
2022-07-26T19:26:29.698Z,41.58
2022-07-26T19:28:56.533Z,41.50
2022-07-26T19:31:23.840Z,41.21
2022-07-26T19:33:50.852Z,41.50
2022-07-26T19:36:26.155Z,41.81
2022-07-26T19:38:56.581Z,41.93
2022-07-26T19:41:24.893Z,42.26
2022-07-26T19:43:51.723Z,42.14
2022-07-26T19:46:18.666Z,42.21
2022-07-26T19:48:45.605Z,42.20
2022-07-26T19:51:12.477Z,42.20
2022-07-26T19:53:39.322Z,43.02
2022-07-26T19:56:06.416Z,43.26
2022-07-26T19:58:33.359Z,43.24
2022-07-26T20:01:00.162Z,43.48
2022-07-26T20:03:26.986Z,43.94
2022-07-26T20:05:55.605Z,44.72
2022-07-26T20:08:22.520Z,44.44
2022-07-26T20:10:49.371Z,44.54
2022-07-26T20:13:16.474Z,44.67
2022-07-26T20:15:43.626Z,45.29
2022-07-26T20:18:11.111Z,45.60
2022-07-26T20:20:37.919Z,46.00
2022-07-26T20:23:07.261Z,46.54
2022-07-26T20:25:34.411Z,46.77
2022-07-26T20:28:01.248Z,47.18
2022-07-26T20:30:28.293Z,47.24
2022-07-26T20:32:55.539Z,48.10
2022-07-26T20:35:22.462Z,48.96
2022-07-26T20:37:49.460Z,50.06
2022-07-26T20:40:18.103Z,50.99
2022-07-26T20:42:45.514Z,51.67
2022-07-26T20:45:14.363Z,51.94
2022-07-26T20:47:41.689Z,52.85
2022-07-26T20:50:12.858Z,53.37
2022-07-26T20:52:40.037Z,53.89
2022-07-26T20:55:08.180Z,54.34
2022-07-26T20:57:35.406Z,55.05
2022-07-26T21:00:05.864Z,55.82
2022-07-26T21:02:32.783Z,56.16
2022-07-26T21:04:59.683Z,56.52
2022-07-26T21:07:53.545Z,56.37
2022-07-26T21:10:13.815Z,57.28
2022-07-26T21:12:40.665Z,56.95
2022-07-26T21:15:07.949Z,57.22
2022-07-26T21:17:35.437Z,57.39
2022-07-26T21:20:04.222Z,57.49
2022-07-26T21:22:31.202Z,58.46
2022-07-26T21:24:58.107Z,57.99
2022-07-26T21:27:25.041Z,58.54
2022-07-26T21:29:51.955Z,59.30
2022-07-26T21:32:18.786Z,59.45
2022-07-26T21:34:45.643Z,60.06
2022-07-26T21:37:12.532Z,59.91
2022-07-26T21:39:39.350Z,60.87
2022-07-26T21:42:06.197Z,61.77
2022-07-26T21:44:33.236Z,62.27
2022-07-26T21:47:00.239Z,63.42
2022-07-26T21:49:27.223Z,63.43
2022-07-26T21:51:54.091Z,64.46
2022-07-26T21:54:20.934Z,64.96
2022-07-26T21:56:47.747Z,65.00
2022-07-26T21:59:15.007Z,65.73
2022-07-26T22:01:42.703Z,66.78
2022-07-26T22:04:10.188Z,66.87
2022-07-26T22:06:37.870Z,66.96
2022-07-26T22:09:05.387Z,67.03
2022-07-26T22:11:32.278Z,67.55
2022-07-26T22:13:59.154Z,67.72
2022-07-26T22:16:26.055Z,67.82
2022-07-26T22:18:52.934Z,68.58
2022-07-26T22:21:19.837Z,68.47
2022-07-26T22:23:46.900Z,68.66
2022-07-26T22:26:14.381Z,70.35
2022-07-26T22:28:41.228Z,70.01
2022-07-26T22:31:08.093Z,69.58
2022-07-26T22:33:34.925Z,70.09
2022-07-26T22:36:01.741Z,70.86
2022-07-26T22:38:28.884Z,70.70
2022-07-26T22:40:55.714Z,71.27
2022-07-26T22:43:22.551Z,71.69
2022-07-26T22:45:49.440Z,71.84
2022-07-26T22:48:16.495Z,72.69
2022-07-26T22:50:44.167Z,72.54
2022-07-26T22:53:11.056Z,72.58
2022-07-26T22:55:38.038Z,72.68
2022-07-26T22:58:04.998Z,73.00
2022-07-26T23:00:31.918Z,74.66
2022-07-26T23:02:58.735Z,74.60
2022-07-26T23:05:35.468Z,75.57
2022-07-26T23:08:36.647Z,75.56
2022-07-26T23:10:59.463Z,75.89
2022-07-26T23:13:26.540Z,77.26
2022-07-26T23:15:58.101Z,77.14
2022-07-26T23:18:28.845Z,77.13
2022-07-26T23:20:55.699Z,76.85
2022-07-26T23:23:22.646Z,76.80
2022-07-26T23:25:52.219Z,76.92
2022-07-26T23:28:35.668Z,76.17
2022-07-26T23:31:10.136Z,77.28
2022-07-26T23:33:52.516Z,77.15
2022-07-26T23:36:23.851Z,77.36
2022-07-26T23:38:50.863Z,77.79
2022-07-26T23:41:18.920Z,78.32
2022-07-26T23:43:45.779Z,79.71
2022-07-26T23:46:12.686Z,79.22
2022-07-26T23:48:39.707Z,79.81
2022-07-26T23:51:06.623Z,80.83
2022-07-26T23:53:33.465Z,81.58
2022-07-26T23:56:00.299Z,81.55
2022-07-26T23:58:27.103Z,82.63
